createdAt,value
2023-01-27T00:00:34.776Z,94823.38
2023-01-27T00:03:01.538Z,94817.00
2023-01-27T00:05:28.168Z,94817.22
2023-01-27T00:07:58.396Z,94814.63
2023-01-27T00:10:27.158Z,94814.25
2023-01-27T00:13:12.887Z,94812.66
2023-01-27T00:15:40.021Z,94811.63
2023-01-27T00:18:07.202Z,94811.00
2023-01-27T00:20:52.645Z,94814.00
2023-01-27T00:23:39.569Z,94815.59
2023-01-27T00:26:09.951Z,94809.59
2023-01-27T00:28:38.475Z,94805.19
2023-01-27T00:31:27.545Z,94796.38
2023-01-27T00:33:56.068Z,94805.59
2023-01-27T00:36:22.798Z,94803.00
2023-01-27T00:38:49.427Z,94802.41
2023-01-27T00:41:20.098Z,94796.78
2023-01-27T00:43:47.544Z,94794.97
2023-01-27T00:46:14.956Z,94794.53
2023-01-27T00:48:41.627Z,94786.31
2023-01-27T00:51:08.397Z,94789.91
2023-01-27T00:53:35.048Z,94796.72
2023-01-27T00:56:01.847Z,94794.91
2023-01-27T00:58:30.218Z,94803.72
2023-01-27T01:01:01.602Z,94801.09
2023-01-27T01:03:31.908Z,94804.50
2023-01-27T01:05:58.823Z,94804.91
2023-01-27T01:08:26.163Z,94803.72
2023-01-27T01:10:53.278Z,94808.72
2023-01-27T01:13:21.532Z,94807.53
2023-01-27T01:15:49.702Z,94818.28
2023-01-27T01:18:16.562Z,94816.09
2023-01-27T01:20:45.451Z,94815.09
2023-01-27T01:23:13.639Z,94818.91
2023-01-27T01:25:40.645Z,94824.91
2023-01-27T01:28:08.875Z,94823.94
2023-01-27T01:30:37.436Z,94821.75
2023-01-27T01:33:06.988Z,94813.31
2023-01-27T01:35:38.067Z,94817.34
2023-01-27T01:38:04.727Z,94817.16
2023-01-27T01:40:31.856Z,94815.19
2023-01-27T01:43:01.140Z,94821.97
2023-01-27T01:45:50.175Z,94821.97
2023-01-27T01:48:27.189Z,94818.38
2023-01-27T01:50:58.482Z,94818.00
2023-01-27T01:53:31.495Z,94811.19
2023-01-27T01:56:00.921Z,94812.19
2023-01-27T01:58:28.157Z,94806.59
2023-01-27T02:00:57.738Z,94808.19
2023-01-27T02:03:27.785Z,94804.00
2023-01-27T02:05:55.975Z,94801.59
2023-01-27T02:08:28.306Z,94804.00
2023-01-27T02:10:55.200Z,94801.41
2023-01-27T02:13:22.252Z,94797.81
2023-01-27T02:15:51.648Z,94794.41
2023-01-27T02:18:18.782Z,94790.38
2023-01-27T02:20:48.322Z,94790.75
2023-01-27T02:23:27.819Z,94789.94
2023-01-27T02:25:59.636Z,94790.53
2023-01-27T02:28:27.406Z,94792.69
2023-01-27T02:30:55.504Z,94798.47
2023-01-27T02:33:22.342Z,94789.69
2023-01-27T02:35:59.061Z,94781.31
2023-01-27T02:38:27.326Z,94775.91
2023-01-27T02:40:58.757Z,94774.09
2023-01-27T02:43:25.482Z,94769.09
2023-01-27T02:45:52.383Z,94762.53
2023-01-27T02:48:19.413Z,94765.91
2023-01-27T02:50:46.040Z,94772.91
2023-01-27T02:53:13.010Z,94786.09
2023-01-27T02:55:39.726Z,94791.28
2023-01-27T02:58:08.210Z,94791.66
2023-01-27T03:00:42.761Z,94785.84
2023-01-27T03:03:09.559Z,94797.66
2023-01-27T03:05:36.284Z,94788.69
2023-01-27T03:08:03.056Z,94788.50
2023-01-27T03:10:29.734Z,94785.53
2023-01-27T03:12:58.140Z,94785.34
2023-01-27T03:15:44.622Z,94783.31
2023-01-27T03:18:16.126Z,94771.75
2023-01-27T03:20:45.550Z,94773.56
2023-01-27T03:23:14.122Z,94780.38
2023-01-27T03:25:42.404Z,94782.16
2023-01-27T03:28:09.933Z,94777.16
2023-01-27T03:30:43.618Z,94773.75
2023-01-27T03:33:16.615Z,94774.16
2023-01-27T03:36:11.060Z,94775.56
2023-01-27T03:39:02.892Z,94773.78
2023-01-27T03:41:48.409Z,94763.56
2023-01-27T03:44:34.107Z,94770.56
2023-01-27T03:47:02.259Z,94773.38
2023-01-27T03:49:28.960Z,94768.16
2023-01-27T03:51:56.575Z,94753.38
2023-01-27T03:54:23.181Z,94761.19
2023-01-27T03:56:49.772Z,94756.38
2023-01-27T03:59:17.657Z,94752.97
2023-01-27T04:01:44.588Z,94755.56
2023-01-27T04:04:31.386Z,94756.13
2023-01-27T04:07:02.817Z,94764.09
2023-01-27T04:09:31.411Z,94769.47
2023-01-27T04:12:00.041Z,94766.88
2023-01-27T04:14:29.064Z,94765.28
2023-01-27T04:16:57.739Z,94766.06
2023-01-27T04:19:25.918Z,94771.88
2023-01-27T04:21:53.666Z,94768.47
2023-01-27T04:24:23.129Z,94765.88
2023-01-27T04:26:55.373Z,94761.50
2023-01-27T04:29:24.228Z,94759.09
2023-01-27T04:31:51.267Z,94759.69
2023-01-27T04:34:18.784Z,94752.53
2023-01-27T04:36:47.728Z,94754.72
2023-01-27T04:39:15.442Z,94762.31
2023-01-27T04:41:42.814Z,94759.72
2023-01-27T04:44:10.459Z,94751.34
2023-01-27T04:46:37.587Z,94752.16
2023-01-27T04:49:04.765Z,94761.75
2023-01-27T04:51:31.944Z,94763.38
2023-01-27T04:54:00.177Z,94758.34
2023-01-27T04:56:29.509Z,94768.56
2023-01-27T04:58:58.809Z,94772.75
2023-01-27T05:01:25.576Z,94775.75
2023-01-27T05:03:52.220Z,94766.53
2023-01-27T05:06:19.218Z,94769.53
2023-01-27T05:08:45.952Z,94766.47
2023-01-27T05:11:14.643Z,94758.69
2023-01-27T05:13:41.435Z,94767.25
2023-01-27T05:16:11.461Z,94762.69
2023-01-27T05:18:39.076Z,94766.88
2023-01-27T05:21:06.686Z,94776.25
2023-01-27T05:23:36.625Z,94766.47
2023-01-27T05:26:07.894Z,94774.28
2023-01-27T05:28:37.093Z,94780.28
2023-01-27T05:31:06.168Z,94777.50
2023-01-27T05:33:33.293Z,94783.31
2023-01-27T05:36:01.632Z,94785.09
2023-01-27T05:38:28.846Z,94782.50
2023-01-27T05:40:57.605Z,94789.69
2023-01-27T05:43:25.260Z,94791.66
2023-01-27T05:45:53.570Z,94791.25
2023-01-27T05:48:20.246Z,94795.22
2023-01-27T05:50:56.245Z,94793.63
2023-01-27T05:53:23.793Z,94806.38
2023-01-27T05:55:50.988Z,94805.91
2023-01-27T05:58:17.752Z,94803.06
2023-01-27T06:00:44.582Z,94805.06
2023-01-27T06:03:12.613Z,94802.28
2023-01-27T06:05:39.682Z,94809.06
2023-01-27T06:08:06.311Z,94811.28
2023-01-27T06:10:37.092Z,94810.53
2023-01-27T06:13:03.895Z,94821.59
2023-01-27T06:15:30.910Z,94820.00
2023-01-27T06:17:57.545Z,94821.19
2023-01-27T06:20:25.666Z,94824.00
2023-01-27T06:22:52.250Z,94824.97
2023-01-27T06:25:18.924Z,94833.38
2023-01-27T06:27:45.699Z,94829.00
2023-01-27T06:30:13.092Z,94834.41
2023-01-27T06:32:39.700Z,94835.19
2023-01-27T06:35:07.317Z,94834.97
2023-01-27T06:37:35.282Z,94836.41
2023-01-27T06:40:01.899Z,94837.22
2023-01-27T06:42:35.076Z,94842.59
2023-01-27T06:45:01.765Z,94839.19
2023-01-27T06:47:28.437Z,94838.41
2023-01-27T06:49:55.176Z,94842.78
2023-01-27T06:52:21.770Z,94847.63
2023-01-27T06:54:49.707Z,94849.22
2023-01-27T06:57:16.480Z,94848.59
2023-01-27T06:59:43.224Z,94856.00
2023-01-27T07:02:12.724Z,94853.41
2023-01-27T07:04:39.501Z,94852.84
2023-01-27T07:07:06.127Z,94857.25
2023-01-27T07:09:42.873Z,94862.00
2023-01-27T07:12:18.664Z,94870.41
2023-01-27T07:14:45.296Z,94858.41
2023-01-27T07:17:12.015Z,94864.25
2023-01-27T07:19:38.619Z,94865.84
2023-01-27T07:22:05.204Z,94862.84
2023-01-27T07:24:31.934Z,94864.88
2023-01-27T07:26:58.576Z,94865.31
2023-01-27T07:29:26.589Z,94862.13
2023-01-27T07:31:53.261Z,94865.16
2023-01-27T07:34:19.967Z,94872.94
2023-01-27T07:36:46.602Z,94871.19
2023-01-27T07:39:13.349Z,94875.97
2023-01-27T07:41:40.009Z,94870.56
2023-01-27T07:44:06.628Z,94865.81
2023-01-27T07:46:35.120Z,94864.25
2023-01-27T07:49:01.749Z,94857.25
2023-01-27T07:51:28.416Z,94860.84
2023-01-27T07:53:55.020Z,94864.25
2023-01-27T07:56:21.627Z,94860.66
2023-01-27T07:58:48.387Z,94851.63
2023-01-27T08:01:15.178Z,94858.03
2023-01-27T08:03:43.326Z,94846.63
2023-01-27T08:06:12.397Z,94856.44
2023-01-27T08:08:39.178Z,94852.66
2023-01-27T08:11:08.675Z,94854.69
2023-01-27T08:13:36.587Z,94847.47
2023-01-27T08:16:09.071Z,94847.13
2023-01-27T08:18:35.745Z,94852.31
2023-01-27T08:21:05.873Z,94855.50
2023-01-27T08:23:33.376Z,94860.53
2023-01-27T08:26:03.362Z,94864.16
2023-01-27T08:28:32.467Z,94860.19
2023-01-27T08:31:04.633Z,94857.75
2023-01-27T08:33:31.371Z,94867.38
2023-01-27T08:36:04.253Z,94868.56
2023-01-27T08:38:30.951Z,94875.16
2023-01-27T08:40:59.577Z,94869.56
2023-01-27T08:43:26.239Z,94868.22
2023-01-27T08:45:53.123Z,94870.19
2023-01-27T08:48:19.828Z,94872.34
2023-01-27T08:50:47.439Z,94880.16
2023-01-27T08:53:15.711Z,94883.19
2023-01-27T08:55:42.491Z,94878.22
2023-01-27T08:58:09.107Z,94889.44
2023-01-27T09:00:35.795Z,94887.81
2023-01-27T09:03:02.462Z,94889.38
2023-01-27T09:05:29.328Z,94886.41
2023-01-27T09:07:56.019Z,94886.81
2023-01-27T09:10:24.929Z,94884.84
2023-01-27T09:12:51.783Z,94892.25
2023-01-27T09:15:18.599Z,94886.88
2023-01-27T09:17:45.341Z,94886.50
2023-01-27T09:20:13.252Z,94891.72
2023-01-27T09:22:41.258Z,94889.72
2023-01-27T09:25:09.290Z,94887.16
2023-01-27T09:27:39.484Z,94888.56
2023-01-27T09:30:08.108Z,94895.56
2023-01-27T09:32:34.744Z,94899.19
2023-01-27T09:35:01.392Z,94896.97
2023-01-27T09:37:28.297Z,94908.97
2023-01-27T09:40:02.227Z,94915.78
2023-01-27T09:42:54.310Z,94914.75
2023-01-27T09:45:35.990Z,94920.19
2023-01-27T09:48:19.411Z,94922.16
2023-01-27T09:50:52.810Z,94920.53
2023-01-27T09:53:41.915Z,94917.31
2023-01-27T09:56:15.695Z,94911.94
2023-01-27T09:58:58.960Z,94911.16
2023-01-27T10:01:40.051Z,94904.13
2023-01-27T10:04:23.378Z,94900.16
2023-01-27T10:07:25.711Z,94909.38
2023-01-27T10:10:21.269Z,94905.63
2023-01-27T10:13:06.876Z,94897.41
2023-01-27T10:15:47.827Z,94899.63
2023-01-27T10:18:29.493Z,94901.66
2023-01-27T10:21:03.890Z,94904.06
2023-01-27T10:23:41.859Z,94907.47
2023-01-27T10:26:19.842Z,94911.44
2023-01-27T10:28:50.863Z,94901.22
2023-01-27T10:31:26.714Z,94917.66
2023-01-27T10:33:55.207Z,94909.28
2023-01-27T10:36:27.738Z,94904.66
2023-01-27T10:39:08.193Z,94900.66
2023-01-27T10:41:46.150Z,94902.69
2023-01-27T10:44:39.288Z,94902.50
2023-01-27T10:47:15.834Z,94905.50
2023-01-27T10:49:49.747Z,94901.69
2023-01-27T10:52:21.397Z,94901.31
2023-01-27T10:54:54.042Z,94907.91
2023-01-27T10:57:25.920Z,94912.88
2023-01-27T11:00:21.983Z,94912.09
2023-01-27T11:02:55.053Z,94912.31
2023-01-27T11:05:28.701Z,94908.09
2023-01-27T11:07:59.119Z,94914.13
2023-01-27T11:10:33.516Z,94914.53
2023-01-27T11:13:03.496Z,94910.94
2023-01-27T11:15:35.264Z,94911.31
2023-01-27T11:18:11.127Z,94913.53
2023-01-27T11:20:40.770Z,94914.31
2023-01-27T11:23:15.249Z,94907.31
2023-01-27T11:25:47.902Z,94910.94
2023-01-27T11:28:25.677Z,94907.72
2023-01-27T11:31:01.206Z,94907.13
2023-01-27T11:33:40.609Z,94898.50
2023-01-27T11:36:09.173Z,94906.53
2023-01-27T11:38:36.004Z,94898.13
2023-01-27T11:41:02.711Z,94887.50
2023-01-27T11:43:29.631Z,94901.94
2023-01-27T11:46:02.521Z,94889.31
2023-01-27T11:48:41.044Z,94886.09
2023-01-27T11:51:14.645Z,94880.66
2023-01-27T11:53:41.780Z,94872.47
2023-01-27T11:56:15.972Z,94874.25
2023-01-27T11:58:47.586Z,94873.44
2023-01-27T12:01:19.067Z,94872.81
2023-01-27T12:03:54.849Z,94874.22
2023-01-27T12:06:31.600Z,94877.19
2023-01-27T12:08:58.311Z,94871.19
2023-01-27T12:11:26.679Z,94871.97
2023-01-27T12:13:56.418Z,94876.81
2023-01-27T12:16:27.250Z,94873.81
2023-01-27T12:19:02.510Z,94870.81
2023-01-27T12:21:48.032Z,94870.81
2023-01-27T12:24:24.546Z,94877.84
2023-01-27T12:26:52.316Z,94879.44
2023-01-27T12:29:23.427Z,94880.63
2023-01-27T12:31:53.501Z,94883.25
2023-01-27T12:34:27.479Z,94885.50
2023-01-27T12:36:55.559Z,94873.88
2023-01-27T12:39:37.120Z,94872.84
2023-01-27T12:42:04.123Z,94869.25
2023-01-27T12:44:41.683Z,94872.28
2023-01-27T12:47:23.620Z,94870.66
2023-01-27T12:49:51.668Z,94872.06
2023-01-27T12:52:20.073Z,94865.44
2023-01-27T12:54:47.047Z,94866.47
2023-01-27T12:57:18.055Z,94867.66
2023-01-27T12:59:50.338Z,94874.06
2023-01-27T13:02:20.567Z,94870.06
2023-01-27T13:04:53.128Z,94871.66
2023-01-27T13:07:23.916Z,94866.63
2023-01-27T13:09:54.367Z,94868.66
2023-01-27T13:12:23.519Z,94865.81
2023-01-27T13:14:53.145Z,94873.84
2023-01-27T13:17:28.560Z,94874.66
2023-01-27T13:20:00.440Z,94867.81
2023-01-27T13:22:28.459Z,94871.59
2023-01-27T13:25:02.722Z,94876.97
2023-01-27T13:27:38.873Z,94874.31
2023-01-27T13:30:15.369Z,94872.13
2023-01-27T13:32:47.196Z,94871.94
2023-01-27T13:35:22.891Z,94874.09
2023-01-27T13:37:59.272Z,94878.91
2023-01-27T13:40:28.563Z,94878.66
2023-01-27T13:42:59.625Z,94881.28
2023-01-27T13:45:35.597Z,94888.09
2023-01-27T13:48:04.838Z,94883.31
2023-01-27T13:50:37.759Z,94879.31
2023-01-27T13:53:05.918Z,94881.28
2023-01-27T13:55:58.591Z,94881.28
2023-01-27T13:58:38.716Z,94886.09
2023-01-27T14:01:18.419Z,94884.47
2023-01-27T14:04:05.819Z,94891.06
2023-01-27T14:06:47.375Z,94891.69
2023-01-27T14:09:29.972Z,94887.28
2023-01-27T14:12:09.182Z,94889.66
2023-01-27T14:14:58.056Z,94889.09
2023-01-27T14:17:43.525Z,94892.88
2023-01-27T14:20:31.266Z,94892.69
2023-01-27T14:23:16.431Z,94895.88
2023-01-27T14:25:54.009Z,94894.47
2023-01-27T14:28:32.143Z,94900.06
2023-01-27T14:31:04.813Z,94904.69
2023-01-27T14:33:47.556Z,94900.50
2023-01-27T14:36:21.382Z,94899.88
2023-01-27T14:39:00.492Z,94901.66
2023-01-27T14:41:35.361Z,94900.81
2023-01-27T14:44:09.714Z,94900.97
2023-01-27T14:46:50.318Z,94901.97
2023-01-27T14:49:30.391Z,94911.38
2023-01-27T14:52:02.937Z,94916.41
2023-01-27T14:54:50.843Z,94919.16
2023-01-27T14:57:27.286Z,94910.16
2023-01-27T14:59:58.881Z,94917.16
2023-01-27T15:02:39.349Z,94921.19
2023-01-27T15:05:14.961Z,94915.59
2023-01-27T15:07:51.380Z,94916.63
2023-01-27T15:10:23.707Z,94919.44
2023-01-27T15:13:23.047Z,94917.66
2023-01-27T15:16:19.399Z,94916.47
2023-01-27T15:19:07.980Z,94916.47
2023-01-27T15:21:47.308Z,94922.91
2023-01-27T15:24:40.649Z,94924.09
2023-01-27T15:27:09.930Z,94934.06
2023-01-27T15:29:38.789Z,94931.81
2023-01-27T15:32:28.901Z,94936.78
2023-01-27T15:35:34.455Z,94940.19
2023-01-27T15:38:17.618Z,94935.59
2023-01-27T15:41:01.688Z,94932.63
2023-01-27T15:43:31.331Z,94938.78
2023-01-27T15:46:18.958Z,94940.41
2023-01-27T15:48:46.525Z,94938.78
2023-01-27T15:51:18.720Z,94954.03
2023-01-27T15:53:50.920Z,94948.84
2023-01-27T15:56:17.809Z,94949.44
2023-01-27T15:58:56.111Z,94961.88
2023-01-27T16:01:26.660Z,94958.88
2023-01-27T16:04:05.963Z,94966.28
2023-01-27T16:06:32.912Z,94959.31
2023-01-27T16:09:02.871Z,94960.72
2023-01-27T16:11:41.836Z,94964.53
2023-01-27T16:14:45.642Z,94967.75
2023-01-27T16:17:32.071Z,94970.97
2023-01-27T16:20:21.023Z,94970.97
2023-01-27T16:22:57.847Z,94970.97
2023-01-27T16:25:31.551Z,94973.38
2023-01-27T16:28:03.789Z,94975.97
2023-01-27T16:30:35.470Z,94971.78
2023-01-27T16:33:06.446Z,94970.38
2023-01-27T16:35:40.285Z,94972.56
2023-01-27T16:38:19.929Z,94973.19
2023-01-27T16:40:51.163Z,94974.78
2023-01-27T16:43:21.526Z,94975.41
2023-01-27T16:45:52.371Z,94976.19
2023-01-27T16:48:27.694Z,94986.44
2023-01-27T16:51:05.445Z,94984.00
2023-01-27T16:53:32.431Z,94989.03
2023-01-27T16:56:02.386Z,94977.44
2023-01-27T16:58:43.835Z,94987.06
2023-01-27T17:01:19.026Z,94986.22
2023-01-27T17:03:46.796Z,94984.81
2023-01-27T17:06:16.146Z,94986.63
2023-01-27T17:08:44.412Z,94981.41
2023-01-27T17:11:18.069Z,94988.25
2023-01-27T17:13:49.942Z,94985.63
2023-01-27T17:16:24.816Z,94990.84
2023-01-27T17:18:53.204Z,94991.63
2023-01-27T17:21:33.347Z,94993.44
2023-01-27T17:24:03.476Z,94999.63
2023-01-27T17:26:30.491Z,94995.03
2023-01-27T17:28:57.785Z,94997.63
2023-01-27T17:31:26.141Z,94999.06
2023-01-27T17:33:59.887Z,94998.66
2023-01-27T17:36:26.877Z,94998.66
2023-01-27T17:38:57.211Z,94996.06
2023-01-27T17:41:30.135Z,94997.66
2023-01-27T17:44:01.296Z,94997.88
2023-01-27T17:46:32.861Z,95005.84
2023-01-27T17:49:03.316Z,95005.69
2023-01-27T17:51:35.608Z,95006.47
2023-01-27T17:54:13.353Z,95016.69
2023-01-27T17:56:40.054Z,95014.91
2023-01-27T17:59:13.335Z,95011.50
2023-01-27T18:01:41.837Z,95016.09
2023-01-27T18:04:09.715Z,95011.06
2023-01-27T18:06:37.389Z,95012.25
2023-01-27T18:09:17.099Z,95018.47
2023-01-27T18:11:53.487Z,95019.47
2023-01-27T18:14:20.645Z,95024.66
2023-01-27T18:17:13.612Z,95029.88
2023-01-27T18:19:50.384Z,95032.84
2023-01-27T18:22:17.869Z,95043.44
2023-01-27T18:24:49.964Z,95030.63
2023-01-27T18:27:23.303Z,95048.03
2023-01-27T18:29:52.839Z,95040.63
2023-01-27T18:32:24.126Z,95046.44
2023-01-27T18:34:53.792Z,95043.63
2023-01-27T18:37:27.427Z,95053.06
2023-01-27T18:39:54.459Z,95052.06
2023-01-27T18:42:23.527Z,95053.84
2023-01-27T18:44:51.641Z,95054.47
2023-01-27T18:47:31.921Z,95056.06
2023-01-27T18:50:15.045Z,95057.50
2023-01-27T18:52:42.425Z,95059.09
2023-01-27T18:55:18.216Z,95058.91
2023-01-27T18:57:45.962Z,95057.31
2023-01-27T19:00:15.480Z,95056.31
2023-01-27T19:02:49.005Z,95057.09
2023-01-27T19:05:18.954Z,95057.09
2023-01-27T19:07:45.929Z,95062.31
2023-01-27T19:10:15.915Z,95060.50
2023-01-27T19:12:43.255Z,95063.94
2023-01-27T19:15:13.297Z,95063.13
2023-01-27T19:17:40.717Z,95064.13
2023-01-27T19:20:18.824Z,95059.72
2023-01-27T19:22:46.980Z,95057.09
2023-01-27T19:25:14.318Z,95053.72
2023-01-27T19:27:44.220Z,95055.50
2023-01-27T19:30:25.197Z,95055.31
2023-01-27T19:32:52.663Z,95045.09
2023-01-27T19:35:20.776Z,95052.13
2023-01-27T19:37:49.166Z,95052.91
2023-01-27T19:40:17.128Z,95053.88
2023-01-27T19:42:44.362Z,95064.69
2023-01-27T19:45:13.131Z,95068.09
2023-01-27T19:47:40.160Z,95063.72
2023-01-27T19:50:15.952Z,95071.31
2023-01-27T19:52:45.359Z,95068.91
2023-01-27T19:55:12.719Z,95073.91
2023-01-27T19:57:39.875Z,95062.09
2023-01-27T20:00:17.280Z,95060.28
2023-01-27T20:02:44.454Z,95062.28
2023-01-27T20:05:11.238Z,95057.09
2023-01-27T20:07:38.930Z,95063.47
2023-01-27T20:10:13.822Z,95055.44
2023-01-27T20:12:41.096Z,95067.81
2023-01-27T20:15:17.495Z,95064.03
2023-01-27T20:17:44.833Z,95068.06
2023-01-27T20:20:13.611Z,95068.69
2023-01-27T20:22:40.878Z,95064.69
2023-01-27T20:25:13.522Z,95062.69
2023-01-27T20:27:41.501Z,95062.09
2023-01-27T20:30:12.569Z,95062.69
2023-01-27T20:32:39.162Z,95066.31
2023-01-27T20:35:06.381Z,95073.13
2023-01-27T20:37:33.532Z,95070.50
2023-01-27T20:40:00.450Z,95071.31
2023-01-27T20:42:29.619Z,95071.13
2023-01-27T20:44:56.308Z,95073.53
2023-01-27T20:47:23.086Z,95081.16
2023-01-27T20:49:49.983Z,95076.94
2023-01-27T20:52:16.941Z,95076.13
2023-01-27T20:54:43.932Z,95076.94
2023-01-27T20:57:10.592Z,95080.53
2023-01-27T20:59:39.909Z,95083.53
2023-01-27T21:02:07.000Z,95090.56
2023-01-27T21:04:34.403Z,95082.75
2023-01-27T21:07:01.201Z,95082.16
2023-01-27T21:09:28.235Z,95084.56
2023-01-27T21:11:54.940Z,95085.34
2023-01-27T21:14:21.756Z,95093.16
2023-01-27T21:16:50.658Z,95086.97
2023-01-27T21:19:17.833Z,95098.19
2023-01-27T21:21:46.463Z,95087.78
2023-01-27T21:24:13.444Z,95092.97
2023-01-27T21:26:40.544Z,95089.59
2023-01-27T21:29:10.727Z,95094.16
2023-01-27T21:31:40.254Z,95094.56
2023-01-27T21:34:10.515Z,95100.13
2023-01-27T21:36:37.515Z,95098.72
2023-01-27T21:39:04.965Z,95092.91
2023-01-27T21:41:50.937Z,95098.28
2023-01-27T21:44:38.180Z,95091.47
2023-01-27T21:47:06.382Z,95100.25
2023-01-27T21:49:56.554Z,95089.06
2023-01-27T21:52:24.345Z,95086.44
2023-01-27T21:54:51.101Z,95086.66
2023-01-27T21:57:18.294Z,95085.03
2023-01-27T21:59:46.019Z,95083.59
2023-01-27T22:02:13.319Z,95087.38
2023-01-27T22:04:42.188Z,95081.38
2023-01-27T22:07:12.467Z,95091.41
2023-01-27T22:09:39.866Z,95092.84
2023-01-27T22:12:08.626Z,95083.22
2023-01-27T22:14:35.779Z,95096.06
2023-01-27T22:17:04.819Z,95093.47
2023-01-27T22:19:32.020Z,95085.66
2023-01-27T22:22:01.244Z,95093.06
2023-01-27T22:24:28.003Z,95091.09
2023-01-27T22:26:55.058Z,95085.50
2023-01-27T22:29:21.933Z,95080.91
2023-01-27T22:31:49.506Z,95080.91
2023-01-27T22:34:16.735Z,95076.50
2023-01-27T22:36:43.434Z,95075.47
2023-01-27T22:39:11.918Z,95079.44
2023-01-27T22:41:38.770Z,95076.25
2023-01-27T22:44:06.016Z,95072.63
2023-01-27T22:46:32.690Z,95077.47
2023-01-27T22:48:59.496Z,95074.69
2023-01-27T22:51:26.652Z,95071.88
2023-01-27T22:53:53.697Z,95080.69
2023-01-27T22:56:21.731Z,95074.81
2023-01-27T22:58:48.796Z,95074.59
2023-01-27T23:01:15.454Z,95074.53
2023-01-27T23:03:42.129Z,95073.25
2023-01-27T23:06:09.192Z,95074.00
2023-01-27T23:08:36.431Z,95078.34
2023-01-27T23:11:04.918Z,95075.94
2023-01-27T23:13:34.942Z,95070.75
2023-01-27T23:16:02.609Z,95078.72
2023-01-27T23:18:29.347Z,95072.91
2023-01-27T23:21:02.914Z,95072.09
2023-01-27T23:23:30.302Z,95075.44
2023-01-27T23:25:57.609Z,95068.81
2023-01-27T23:28:24.744Z,95073.41
2023-01-27T23:30:53.825Z,95067.41
2023-01-27T23:33:20.843Z,95063.19
2023-01-27T23:35:47.871Z,95067.97
2023-01-27T23:38:31.400Z,95066.94
2023-01-27T23:41:00.699Z,95066.94
2023-01-27T23:43:30.926Z,95074.56
2023-01-27T23:45:59.765Z,95072.59
2023-01-27T23:48:27.692Z,95078.41
2023-01-27T23:50:55.079Z,95079.22
2023-01-27T23:53:22.137Z,95077.00
2023-01-27T23:55:56.448Z,95077.56
2023-01-27T23:58:23.166Z,95074.50
